Time;durP1;ratioP1;P1;durP2;ratioP2;P2;SDS_P1;SDS_P2;PMS_P1;PMS_P2;Temp;Humidity;BMP_temperature;BMP_pressure;BME280_temperature;BME280_humidity;BME280_pressure;Samples;Min_cycle;Max_cycle;Signal;HPM_P1;HPM_P2
2024/02/07 00:01:22;;;;;;;;;;;;;;;;;;5027440;28;20023;-71
2024/02/07 00:03:48;;;;;;;;;;;;;;;;;;5028192;28;19916;-70
2024/02/07 00:06:16;;;;;;;;;;;;;;;;;;5027589;28;19917;-71
2024/02/07 00:08:41;;;;;;;;;;;;;;;;;;5026811;28;19924;-70
2024/02/07 00:11:07;;;;;;;;;;;;;;;;;;5025993;28;19920;-71
2024/02/07 00:13:32;;;;;;;;;;;;;;;;;;5061087;28;20412;-71
2024/02/07 00:16:00;;;;;;;;;;;;;;;;;;5025614;28;20404;-70
2024/02/07 00:18:25;;;;;;;;;;;;;;;;;;5027429;28;19953;-69
2024/02/07 00:20:51;;;;;;;;;;;;;;;;;;5060296;28;20496;-69
2024/02/07 00:23:16;;;;;;;;;;;;;;;;;;5063890;28;20658;-69
2024/02/07 00:25:42;;;;;;;;;;;;;;;;;;5031615;28;20024;-68
2024/02/07 00:28:07;;;;;;;;;;;;;;;;;;5029671;28;20281;-73
2024/02/07 00:30:33;;;;;;;;;;;;;;;;;;5060638;28;19927;-70
2024/02/07 00:32:58;;;;;;;;;;;;;;;;;;5061423;28;19917;-70
2024/02/07 00:35:24;;;;;;;;;;;;;;;;;;5063020;28;20002;-69
2024/02/07 00:37:49;;;;;;;;;;;;;;;;;;5062162;28;19962;-69
2024/02/07 00:40:14;;;;;;;;;;;;;;;;;;5063727;28;20329;-73
2024/02/07 00:42:40;;;;;;;;;;;;;;;;;;5028836;28;19945;-70
2024/02/07 00:45:05;;;;;;;;;;;;;;;;;;5058153;28;19932;-71
2024/02/07 00:47:30;;;;;;;;;;;;;;;;;;5028261;28;20202;-70
2024/02/07 00:49:56;;;;;;;;;;;;;;;;;;5065154;28;20448;-70
2024/02/07 00:52:21;;;;;;;;;;;;;;;;;;5027682;28;19925;-69
2024/02/07 00:54:47;;;;;;;;;;;;;;;;;;5031801;28;19916;-70
2024/02/07 00:57:12;;;;;;;;;;;;;;;;;;5060406;28;20075;-71
2024/02/07 00:59:37;;;;;;;;;;;;;;;;;;5029214;28;21069;-72
2024/02/07 01:02:05;;;;;;;;;;;;;;;;;;5061407;28;19920;-70
2024/02/07 01:04:31;;;;;;;;;;;;;;;;;;5062144;28;19921;-71
2024/02/07 01:06:56;;;;;;;;;;;;;;;;;;5062517;28;20347;-70
2024/02/07 01:09:21;;;;;;;;;;;;;;;;;;5061831;28;20398;-72
2024/02/07 01:11:47;;;;;;;;;;;;;;;;;;5030436;28;20012;-69
2024/02/07 01:14:12;;;;;;;;;;;;;;;;;;5030781;28;20369;-72
2024/02/07 01:16:37;;;;;;;;;;;;;;;;;;5027138;28;19947;-70
2024/02/07 01:19:03;;;;;;;;;;;;;;;;;;5024100;28;20368;-69
2024/02/07 01:21:31;;;;;;;;;;;;;;;;;;5029147;28;19940;-69
2024/02/07 01:23:58;;;;;;;;;;;;;;;;;;5029679;28;19921;-69
2024/02/07 01:26:24;;;;;;;;;;;;;;;;;;5059900;28;19990;-72
2024/02/07 01:28:50;;;;;;;;;;;;;;;;;;5059723;28;20200;-73
2024/02/07 01:31:16;;;;;;;;;;;;;;;;;;5030023;28;20284;-70
2024/02/07 01:33:42;;;;;;;;;;;;;;;;;;5027899;28;19917;-71
2024/02/07 01:36:07;;;;;;;;;;;;;;;;;;5029540;28;19983;-70
2024/02/07 01:38:33;;;;;;;;;;;;;;;;;;5027171;28;20448;-71
2024/02/07 01:40:58;;;;;;;;;;;;;;;;;;5019866;28;19921;-70
2024/02/07 01:43:33;;;;;;;;;;;;;;;;;;5026355;28;20448;-72
2024/02/07 01:46:01;;;;;;;;;;;;;;;;;;5029197;28;19920;-70
2024/02/07 01:48:26;;;;;;;;;;;;;;;;;;5027667;28;19943;-70
2024/02/07 01:50:54;;;;;;;;;;;;;;;;;;5061666;28;20477;-70
2024/02/07 01:53:22;;;;;;;;;;;;;;;;;;5031135;28;20797;-70
2024/02/07 01:55:49;;;;;;;;;;;;;;;;;;5060268;28;20260;-69
2024/02/07 01:58:17;;;;;;;;;;;;;;;;;;5043619;28;20014;-71
2024/02/07 02:00:42;;;;;;;;;;;;;;;;;;5025899;28;19983;-71
2024/02/07 02:03:07;;;;;;;;;;;;;;;;;;5027547;28;20318;-69
2024/02/07 02:05:32;;;;;;;;;;;;;;;;;;5030321;28;20144;-69
2024/02/07 02:07:58;;;;;;;;;;;;;;;;;;5059951;28;20325;-69
2024/02/07 02:10:23;;;;;;;;;;;;;;;;;;5061197;28;19927;-69
2024/02/07 02:12:49;;;;;;;;;;;;;;;;;;5029857;28;20361;-69
2024/02/07 02:15:14;;;;;;;;;;;;;;;;;;5061272;28;19917;-69
2024/02/07 02:17:40;;;;;;;;;;;;;;;;;;5028935;28;20566;-69
2024/02/07 02:20:09;;;;;;;;;;;;;;;;;;5060880;28;20352;-69
2024/02/07 02:22:34;;;;;;;;;;;;;;;;;;5057769;28;20942;-69
2024/02/07 02:25:00;;;;;;;;;;;;;;;;;;5060447;28;20008;-70
2024/02/07 02:27:32;;;;;;;;;;;;;;;;;;5026660;28;20754;-69
2024/02/07 02:29:58;;;;;;;;;;;;;;;;;;5059917;28;19956;-70
2024/02/07 02:32:24;;;;;;;;;;;;;;;;;;5058326;28;20387;-69
2024/02/07 02:34:50;;;;;;;;;;;;;;;;;;5029049;28;20329;-70
2024/02/07 02:37:15;;;;;;;;;;;;;;;;;;5059944;28;19970;-71
2024/02/07 02:39:41;;;;;;;;;;;;;;;;;;5030666;28;19924;-71
2024/02/07 02:42:08;;;;;;;;;;;;;;;;;;5026216;28;19973;-71
2024/02/07 02:44:34;;;;;;;;;;;;;;;;;;5027480;28;20388;-69
2024/02/07 02:47:01;;;;;;;;;;;;;;;;;;5028246;28;19920;-70
2024/02/07 02:49:27;;;;;;;;;;;;;;;;;;5059086;28;19991;-70
2024/02/07 02:51:52;;;;;;;;;;;;;;;;;;5058221;28;21899;-69
2024/02/07 02:54:18;;;;;;;;;;;;;;;;;;5028784;28;19920;-69
2024/02/07 02:56:49;;;;;;;;;;;;;;;;;;5026556;28;20299;-70
2024/02/07 02:59:14;;;;;;;;;;;;;;;;;;5028626;28;19920;-69
2024/02/07 03:01:40;;;;;;;;;;;;;;;;;;5060248;28;19917;-69
2024/02/07 03:04:26;;;;;;;;;;;;;;;;;;5027557;28;20548;-70
2024/02/07 03:07:13;;;;;;;;;;;;;;;;;;5027629;28;20443;-69
2024/02/07 03:09:48;;;;;;;;;;;;;;;;;;5028140;28;19917;-70
2024/02/07 03:12:15;;;;;;;;;;;;;;;;;;5026187;28;19928;-69
2024/02/07 03:14:41;;;;;;;;;;;;;;;;;;5026428;28;20352;-69
2024/02/07 03:17:06;;;;;;;;;;;;;;;;;;5022529;28;19925;-70
2024/02/07 03:19:32;;;;;;;;;;;;;;;;;;5026850;28;19913;-70
2024/02/07 03:21:57;;;;;;;;;;;;;;;;;;5057384;28;19936;-71
2024/02/07 03:24:22;;;;;;;;;;;;;;;;;;5059015;28;19985;-69
2024/02/07 03:26:50;;;;;;;;;;;;;;;;;;5056880;28;20014;-69
2024/02/07 03:29:17;;;;;;;;;;;;;;;;;;5029784;28;20331;-69
2024/02/07 03:31:43;;;;;;;;;;;;;;;;;;5029777;28;20388;-69
2024/02/07 03:34:14;;;;;;;;;;;;;;;;;;5023910;28;19921;-69
2024/02/07 03:36:39;;;;;;;;;;;;;;;;;;5027462;28;19978;-70
2024/02/07 03:39:09;;;;;;;;;;;;;;;;;;5057420;28;20210;-69
2024/02/07 03:41:34;;;;;;;;;;;;;;;;;;5057669;28;19921;-69
2024/02/07 03:44:09;;;;;;;;;;;;;;;;;;5027418;28;19921;-70
2024/02/07 03:46:34;;;;;;;;;;;;;;;;;;5059395;28;20016;-70
2024/02/07 03:49:03;;;;;;;;;;;;;;;;;;5058389;28;19916;-69
2024/02/07 03:51:28;;;;;;;;;;;;;;;;;;5027748;28;19924;-69
2024/02/07 03:53:53;;;;;;;;;;;;;;;;;;5026429;28;19921;-69
2024/02/07 03:56:19;;;;;;;;;;;;;;;;;;5026125;28;19927;-71
2024/02/07 03:58:46;;;;;;;;;;;;;;;;;;5027613;28;19940;-70
2024/02/07 04:01:15;;;;;;;;;;;;;;;;;;5057403;28;20016;-71
2024/02/07 04:03:43;;;;;;;;;;;;;;;;;;5028371;28;19970;-70
2024/02/07 04:06:08;;;;;;;;;;;;;;;;;;5059620;28;19917;-69
2024/02/07 04:08:34;;;;;;;;;;;;;;;;;;5042094;28;20024;-71
2024/02/07 04:11:02;;;;;;;;;;;;;;;;;;5025767;28;20449;-70
2024/02/07 05:16:18;;;;;;;;;;;;;;;;;;5030716;28;20438;-69
2024/02/07 05:18:43;;;;;;;;;;;;;;;;;;5028677;28;19917;-69
2024/02/07 05:21:09;;;;;;;;;;;;;;;;;;5024818;28;19921;-70
2024/02/07 05:23:34;;;;;;;;;;;;;;;;;;5048252;28;20422;-70
2024/02/07 05:26:04;;;;;;;;;;;;;;;;;;5027622;28;20382;-69
2024/02/07 05:28:34;;;;;;;;;;;;;;;;;;5061523;28;19921;-69
2024/02/07 05:31:01;;;;;;;;;;;;;;;;;;5059355;28;20360;-70
2024/02/07 05:33:28;;;;;;;;;;;;;;;;;;5043662;28;19928;-69
2024/02/07 05:35:55;;;;;;;;;;;;;;;;;;5028019;28;19921;-70
2024/02/07 05:38:20;;;;;;;;;;;;;;;;;;5061162;28;19934;-69
2024/02/07 05:40:48;;;;;;;;;;;;;;;;;;5028816;28;21484;-71
2024/02/07 05:45:58;;;;;;;;;;;;;;;;;;5031625;28;19929;-69
2024/02/07 05:48:23;;;;;;;;;;;;;;;;;;5033879;28;20524;-69
2024/02/07 05:54:07;;;;;;;;;;;;;;;;;;5030173;28;20067;-69
2024/02/07 05:56:33;;;;;;;;;;;;;;;;;;5062584;28;19929;-69
2024/02/07 05:59:01;;;;;;;;;;;;;;;;;;5059875;28;20576;-69
2024/02/07 06:01:29;;;;;;;;;;;;;;;;;;5028182;28;19917;-69
2024/02/07 06:03:54;;;;;;;;;;;;;;;;;;5028486;28;20339;-69
2024/02/07 06:06:20;;;;;;;;;;;;;;;;;;5063159;28;19975;-68
2024/02/07 06:12:05;;;;;;;;;;;;;;;;;;5026770;28;20073;-69
2024/02/07 06:14:31;;;;;;;;;;;;;;;;;;5044126;28;20475;-69
2024/02/07 06:16:58;;;;;;;;;;;;;;;;;;5031087;28;20919;-70
2024/02/07 06:19:26;;;;;;;;;;;;;;;;;;5046486;28;19995;-69
2024/02/07 06:21:52;;;;;;;;;;;;;;;;;;5060460;28;20506;-69
2024/02/07 06:24:18;;;;;;;;;;;;;;;;;;5025220;28;19921;-69
2024/02/07 06:26:45;;;;;;;;;;;;;;;;;;5030678;28;19916;-69
2024/02/07 06:29:11;;;;;;;;;;;;;;;;;;5061258;28;19982;-69
2024/02/07 06:31:36;;;;;;;;;;;;;;;;;;5062398;28;19921;-69
2024/02/07 06:34:02;;;;;;;;;;;;;;;;;;5045775;28;19923;-68
2024/02/07 06:36:27;;;;;;;;;;;;;;;;;;5044096;28;19931;-69
2024/02/07 06:38:55;;;;;;;;;;;;;;;;;;5061471;28;20300;-69
2024/02/07 06:41:20;;;;;;;;;;;;;;;;;;5059732;28;19921;-69
2024/02/07 06:43:46;;;;;;;;;;;;;;;;;;5061690;28;19921;-69
2024/02/07 06:46:13;;;;;;;;;;;;;;;;;;5046217;28;20015;-69
2024/02/07 06:48:39;;;;;;;;;;;;;;;;;;5029873;28;19917;-69
2024/02/07 06:51:06;;;;;;;;;;;;;;;;;;5062178;28;20259;-69
2024/02/07 06:56:51;;;;;;;;;;;;;;;;;;5029105;28;19970;-69
2024/02/07 06:59:19;;;;;;;;;;;;;;;;;;5029498;28;19924;-68
2024/02/07 07:01:44;;;;;;;;;;;;;;;;;;5027745;28;20813;-69
2024/02/07 07:04:12;;;;;;;;;;;;;;;;;;5059448;28;20703;-68
2024/02/07 07:06:38;;;;;;;;;;;;;;;;;;5030000;28;20027;-68
2024/02/07 07:09:03;;;;;;;;;;;;;;;;;;5029576;28;19917;-69
2024/02/07 07:11:33;;;;;;;;;;;;;;;;;;5029061;28;19921;-68
2024/02/07 07:13:59;;;;;;;;;;;;;;;;;;5044306;28;19967;-68
2024/02/07 07:16:25;;;;;;;;;;;;;;;;;;5043674;28;19921;-69
2024/02/07 07:18:52;;;;;;;;;;;;;;;;;;5040943;28;19917;-69
2024/02/07 07:21:17;;;;;;;;;;;;;;;;;;5044021;28;19919;-69
2024/02/07 07:23:46;;;;;;;;;;;;;;;;;;5060427;28;19924;-69
2024/02/07 07:26:13;;;;;;;;;;;;;;;;;;5059723;28;19921;-70
2024/02/07 07:28:39;;;;;;;;;;;;;;;;;;5061261;28;19927;-69
2024/02/07 07:31:04;;;;;;;;;;;;;;;;;;5028012;28;20308;-69
2024/02/07 07:33:30;;;;;;;;;;;;;;;;;;5029300;28;19921;-69
2024/02/07 07:35:55;;;;;;;;;;;;;;;;;;5059766;28;19917;-69
2024/02/07 07:38:20;;;;;;;;;;;;;;;;;;5042274;28;19917;-69
2024/02/07 07:40:51;;;;;;;;;;;;;;;;;;5044088;28;19917;-70
2024/02/07 07:43:16;;;;;;;;;;;;;;;;;;5026779;28;19963;-69
2024/02/07 07:45:44;;;;;;;;;;;;;;;;;;5060684;28;20015;-70
2024/02/07 07:48:09;;;;;;;;;;;;;;;;;;5059315;28;20466;-70
2024/02/07 07:50:37;;;;;;;;;;;;;;;;;;5029051;28;20198;-70
2024/02/07 07:53:02;;;;;;;;;;;;;;;;;;5027869;28;20007;-69
2024/02/07 07:55:27;;;;;;;;;;;;;;;;;;5060029;28;20023;-70
2024/02/07 07:57:53;;;;;;;;;;;;;;;;;;5029076;28;19928;-70
2024/02/07 08:00:18;;;;;;;;;;;;;;;;;;5040230;28;19977;-69
2024/02/07 08:02:46;;;;;;;;;;;;;;;;;;5028089;28;19971;-69
2024/02/07 08:05:14;;;;;;;;;;;;;;;;;;5057293;28;19916;-70
2024/02/07 08:07:42;;;;;;;;;;;;;;;;;;5028299;28;20108;-68
2024/02/07 08:10:10;;;;;;;;;;;;;;;;;;5027355;28;20273;-68
2024/02/07 08:12:36;;;;;;;;;;;;;;;;;;5025437;28;19974;-68
2024/02/07 08:15:01;;;;;;;;;;;;;;;;;;5059570;28;19921;-68
2024/02/07 08:17:27;;;;;;;;;;;;;;;;;;5058162;28;19931;-68
2024/02/07 08:19:52;;;;;;;;;;;;;;;;;;5027899;28;19991;-69
2024/02/07 08:22:20;;;;;;;;;;;;;;;;;;5058705;28;20025;-69
2024/02/07 08:24:45;;;;;;;;;;;;;;;;;;5029180;28;20190;-69
2024/02/07 08:27:13;;;;;;;;;;;;;;;;;;5026649;28;19916;-70
2024/02/07 08:29:38;;;;;;;;;;;;;;;;;;5041144;28;19924;-69
2024/02/07 08:32:03;;;;;;;;;;;;;;;;;;5027217;28;19962;-69
2024/02/07 08:37:26;;;;;;;;;;;;;;;;;;5028575;28;19921;-69
2024/02/07 08:39:52;;;;;;;;;;;;;;;;;;5027205;28;20383;-69
2024/02/07 08:42:19;;;;;;;;;;;;;;;;;;5028834;28;19921;-69
2024/02/07 08:44:50;;;;;;;;;;;;;;;;;;5063464;28;19932;-68
2024/02/07 08:47:15;;;;;;;;;;;;;;;;;;5064342;28;19920;-68
2024/02/07 08:49:40;;;;;;;;;;;;;;;;;;5030101;28;19951;-68
2024/02/07 08:52:08;;;;;;;;;;;;;;;;;;5062244;28;19928;-68
2024/02/07 08:54:36;;;;;;;;;;;;;;;;;;5062848;28;19917;-68
2024/02/07 08:57:04;;;;;;;;;;;;;;;;;;5061729;28;19940;-69
2024/02/07 08:59:30;;;;;;;;;;;;;;;;;;5033037;28;20007;-69
2024/02/07 09:01:55;;;;;;;;;;;;;;;;;;5031771;28;20603;-68
2024/02/07 09:04:23;;;;;;;;;;;;;;;;;;5064229;28;20007;-69
2024/02/07 09:06:48;;;;;;;;;;;;;;;;;;5029144;28;20001;-70
2024/02/07 09:12:33;;;;;;;;;;;;;;;;;;5026716;28;20465;-70
2024/02/07 09:14:59;;;;;;;;;;;;;;;;;;5065083;28;19917;-70
2024/02/07 09:17:27;;;;;;;;;;;;;;;;;;5062130;28;19925;-68
2024/02/07 09:19:55;;;;;;;;;;;;;;;;;;5048324;28;20281;-68
2024/02/07 09:22:21;;;;;;;;;;;;;;;;;;5063900;28;19944;-68
2024/02/07 09:24:46;;;;;;;;;;;;;;;;;;5047512;28;19917;-68
2024/02/07 09:27:14;;;;;;;;;;;;;;;;;;5028903;28;20375;-68
2024/02/07 09:29:39;;;;;;;;;;;;;;;;;;5061847;28;20026;-68
2024/02/07 09:32:04;;;;;;;;;;;;;;;;;;5061391;28;20113;-68
2024/02/07 09:34:33;;;;;;;;;;;;;;;;;;5030896;28;20072;-68
2024/02/07 09:36:58;;;;;;;;;;;;;;;;;;5031488;28;20006;-67
2024/02/07 09:39:26;;;;;;;;;;;;;;;;;;5030414;28;19964;-68
2024/02/07 09:41:52;;;;;;;;;;;;;;;;;;5060220;28;20383;-69
2024/02/07 09:44:18;;;;;;;;;;;;;;;;;;5063343;28;19917;-68
2024/02/07 09:46:53;;;;;;;;;;;;;;;;;;5030043;28;19927;-68
2024/02/07 09:49:24;;;;;;;;;;;;;;;;;;5031830;28;20428;-68
2024/02/07 09:51:49;;;;;;;;;;;;;;;;;;5031336;28;19917;-68
2024/02/07 09:54:17;;;;;;;;;;;;;;;;;;5029165;28;20368;-69
2024/02/07 09:56:44;;;;;;;;;;;;;;;;;;5028020;28;19928;-68
2024/02/07 09:59:12;;;;;;;;;;;;;;;;;;5030002;28;20337;-68
2024/02/07 10:01:38;;;;;;;;;;;;;;;;;;5061324;28;20126;-68
2024/02/07 10:04:06;;;;;;;;;;;;;;;;;;5030786;28;19917;-68
2024/02/07 10:06:36;;;;;;;;;;;;;;;;;;5058881;28;20380;-69
2024/02/07 10:09:01;;;;;;;;;;;;;;;;;;5058199;28;19933;-68
2024/02/07 10:11:27;;;;;;;;;;;;;;;;;;5059433;28;19959;-69
2024/02/07 10:17:08;;;;;;;;;;;;;;;;;;5028295;28;19932;-68
2024/02/07 10:19:36;;;;;;;;;;;;;;;;;;5032114;28;19921;-66
2024/02/07 10:22:02;;;;;;;;;;;;;;;;;;5045155;28;20454;-69
2024/02/07 10:24:34;;;;;;;;;;;;;;;;;;5060695;28;19916;-69
2024/02/07 10:26:59;;;;;;;;;;;;;;;;;;5058460;28;19917;-68
2024/02/07 10:29:25;;;;;;;;;;;;;;;;;;5062885;28;19921;-68
2024/02/07 10:31:52;;;;;;;;;;;;;;;;;;5028749;28;19921;-68
2024/02/07 10:34:18;;;;;;;;;;;;;;;;;;5031210;28;20387;-68
2024/02/07 10:36:43;;;;;;;;;;;;;;;;;;5060700;28;19924;-67
2024/02/07 10:39:08;;;;;;;;;;;;;;;;;;5061184;28;20319;-68
2024/02/07 10:41:33;;;;;;;;;;;;;;;;;;5027363;28;20031;-68
2024/02/07 10:43:59;;;;;;;;;;;;;;;;;;5023845;28;19959;-68
2024/02/07 10:46:24;;;;;;;;;;;;;;;;;;5028615;28;20289;-69
2024/02/07 10:48:51;;;;;;;;;;;;;;;;;;5028211;28;19951;-69
2024/02/07 10:51:16;;;;;;;;;;;;;;;;;;5060438;28;19962;-69
2024/02/07 10:53:44;;;;;;;;;;;;;;;;;;5014886;28;19999;-69
2024/02/07 10:56:09;;;;;;;;;;;;;;;;;;5059348;28;19984;-69
2024/02/07 10:58:34;;;;;;;;;;;;;;;;;;5027341;28;21464;-69
2024/02/07 11:01:02;;;;;;;;;;;;;;;;;;5026640;28;20015;-69
2024/02/07 11:03:30;;;;;;;;;;;;;;;;;;5028773;28;19960;-69
2024/02/07 11:05:55;;;;;;;;;;;;;;;;;;5041812;28;20385;-69
2024/02/07 11:08:26;;;;;;;;;;;;;;;;;;5058101;28;19921;-70
2024/02/07 11:10:52;;;;;;;;;;;;;;;;;;5043339;28;19920;-69
2024/02/07 11:13:20;;;;;;;;;;;;;;;;;;5026784;28;19928;-70
2024/02/07 11:15:45;;;;;;;;;;;;;;;;;;5060002;28;20590;-70
2024/02/07 11:18:13;;;;;;;;;;;;;;;;;;5028757;28;19920;-70
2024/02/07 11:20:44;;;;;;;;;;;;;;;;;;5026873;28;19921;-70
2024/02/07 11:23:09;;;;;;;;;;;;;;;;;;5027564;28;19983;-70
2024/02/07 11:25:34;;;;;;;;;;;;;;;;;;5029527;28;19928;-70
2024/02/07 11:28:02;;;;;;;;;;;;;;;;;;5058892;28;21802;-69
2024/02/07 11:30:30;;;;;;;;;;;;;;;;;;5027856;28;19979;-70
2024/02/07 11:32:58;;;;;;;;;;;;;;;;;;5037092;28;19965;-71
2024/02/07 11:35:23;;;;;;;;;;;;;;;;;;5060110;28;19921;-70
2024/02/07 11:37:49;;;;;;;;;;;;;;;;;;5030171;28;20283;-71
2024/02/07 11:40:14;;;;;;;;;;;;;;;;;;5026597;28;20133;-70
2024/02/07 11:42:39;;;;;;;;;;;;;;;;;;5040797;28;19927;-69
2024/02/07 11:45:05;;;;;;;;;;;;;;;;;;5027012;28;19952;-69
2024/02/07 11:47:33;;;;;;;;;;;;;;;;;;5059338;28;20008;-70
2024/02/07 11:50:04;;;;;;;;;;;;;;;;;;5058052;28;20349;-68
2024/02/07 11:52:32;;;;;;;;;;;;;;;;;;5057256;28;19917;-71
2024/02/07 11:54:58;;;;;;;;;;;;;;;;;;5028516;28;19927;-71
2024/02/07 12:00:41;;;;;;;;;;;;;;;;;;5026975;28;20133;-70
2024/02/07 12:03:06;;;;;;;;;;;;;;;;;;5027029;28;19917;-70
2024/02/07 12:05:37;;;;;;;;;;;;;;;;;;5027186;28;20554;-70
2024/02/07 12:08:02;;;;;;;;;;;;;;;;;;5027294;28;19921;-70
2024/02/07 12:10:30;;;;;;;;;;;;;;;;;;5057984;28;19917;-70
2024/02/07 12:12:55;;;;;;;;;;;;;;;;;;5057001;28;19928;-70
2024/02/07 12:15:23;;;;;;;;;;;;;;;;;;5060436;28;19932;-70
2024/02/07 12:17:48;;;;;;;;;;;;;;;;;;5031884;28;20019;-70
2024/02/07 12:20:16;;;;;;;;;;;;;;;;;;5031545;28;19917;-71
2024/02/07 12:22:41;;;;;;;;;;;;;;;;;;5044969;28;19946;-70
2024/02/07 12:25:06;;;;;;;;;;;;;;;;;;5060789;28;19928;-71
2024/02/07 12:27:32;;;;;;;;;;;;;;;;;;5045746;28;19943;-70
2024/02/07 12:29:57;;;;;;;;;;;;;;;;;;5060916;28;20399;-70
2024/02/07 12:32:25;;;;;;;;;;;;;;;;;;5063618;28;20372;-70
2024/02/07 12:34:54;;;;;;;;;;;;;;;;;;5030617;28;19957;-70
2024/02/07 12:37:22;;;;;;;;;;;;;;;;;;5031263;28;20338;-69
2024/02/07 12:39:50;;;;;;;;;;;;;;;;;;5029358;28;19929;-70
2024/02/07 12:42:16;;;;;;;;;;;;;;;;;;5043039;28;19925;-70
2024/02/07 12:44:44;;;;;;;;;;;;;;;;;;5058062;28;19956;-69
2024/02/07 12:47:13;;;;;;;;;;;;;;;;;;5061964;28;20673;-70
2024/02/07 12:49:38;;;;;;;;;;;;;;;;;;5063535;28;19921;-70
2024/02/07 12:52:03;;;;;;;;;;;;;;;;;;5029982;28;19924;-70
2024/02/07 12:54:31;;;;;;;;;;;;;;;;;;5029734;28;19932;-70
2024/02/07 12:56:59;;;;;;;;;;;;;;;;;;5030315;28;19936;-70
2024/02/07 12:59:24;;;;;;;;;;;;;;;;;;5031605;28;19990;-70
2024/02/07 13:01:49;;;;;;;;;;;;;;;;;;5061447;28;19954;-71
2024/02/07 13:04:17;;;;;;;;;;;;;;;;;;5031783;28;19917;-69
2024/02/07 13:06:45;;;;;;;;;;;;;;;;;;5030568;28;19921;-70
2024/02/07 13:09:10;;;;;;;;;;;;;;;;;;5061649;28;19927;-70
2024/02/07 13:11:41;;;;;;;;;;;;;;;;;;5042090;28;20289;-71
2024/02/07 13:14:06;;;;;;;;;;;;;;;;;;5062588;28;19940;-69
2024/02/07 13:16:33;;;;;;;;;;;;;;;;;;5029847;28;20569;-70
2024/02/07 13:18:58;;;;;;;;;;;;;;;;;;5031774;28;19916;-70
2024/02/07 13:21:24;;;;;;;;;;;;;;;;;;5060944;28;20009;-70
2024/02/07 13:23:49;;;;;;;;;;;;;;;;;;5059974;28;19917;-71
2024/02/07 13:26:20;;;;;;;;;;;;;;;;;;5029318;28;20373;-70
2024/02/07 13:28:46;;;;;;;;;;;;;;;;;;5031934;28;19920;-70
2024/02/07 13:31:16;;;;;;;;;;;;;;;;;;5062019;28;20413;-70
2024/02/07 13:33:41;;;;;;;;;;;;;;;;;;5045865;28;19939;-70
2024/02/07 13:39:23;;;;;;;;;;;;;;;;;;5027836;28;20835;-70
2024/02/07 13:41:49;;;;;;;;;;;;;;;;;;5060696;28;19912;-71
2024/02/07 13:44:16;;;;;;;;;;;;;;;;;;5060975;28;20296;-69
2024/02/07 13:46:42;;;;;;;;;;;;;;;;;;5028959;28;19937;-69
2024/02/07 13:49:14;;;;;;;;;;;;;;;;;;5030810;28;20372;-69
2024/02/07 13:51:41;;;;;;;;;;;;;;;;;;5030798;28;19920;-70
2024/02/07 13:54:12;;;;;;;;;;;;;;;;;;5030318;28;19960;-70
2024/02/07 13:56:37;;;;;;;;;;;;;;;;;;5060744;28;19916;-71
2024/02/07 13:59:02;;;;;;;;;;;;;;;;;;5029578;28;19925;-70
2024/02/07 14:01:31;;;;;;;;;;;;;;;;;;5031951;28;19917;-70
2024/02/07 14:03:56;;;;;;;;;;;;;;;;;;5029005;28;20734;-70
2024/02/07 14:06:22;;;;;;;;;;;;;;;;;;5062909;28;20288;-70
2024/02/07 14:08:51;;;;;;;;;;;;;;;;;;5061963;28;19999;-70
2024/02/07 14:11:17;;;;;;;;;;;;;;;;;;5060545;28;19917;-71
2024/02/07 14:13:45;;;;;;;;;;;;;;;;;;5030136;28;19916;-70
2024/02/07 14:16:16;;;;;;;;;;;;;;;;;;5044400;28;20384;-70
2024/02/07 14:18:41;;;;;;;;;;;;;;;;;;5062167;28;19928;-69
2024/02/07 14:21:06;;;;;;;;;;;;;;;;;;5028126;28;19924;-70
2024/02/07 14:23:31;;;;;;;;;;;;;;;;;;5030494;28;20462;-70
2024/02/07 14:25:57;;;;;;;;;;;;;;;;;;5057327;28;19925;-70
2024/02/07 14:28:26;;;;;;;;;;;;;;;;;;5061298;28;19920;-69
2024/02/07 14:30:54;;;;;;;;;;;;;;;;;;5059297;28;19925;-71
2024/02/07 14:33:19;;;;;;;;;;;;;;;;;;5030443;28;19967;-70
2024/02/07 14:35:47;;;;;;;;;;;;;;;;;;5060897;28;20019;-70
2024/02/07 14:38:16;;;;;;;;;;;;;;;;;;5027293;28;19923;-70
2024/02/07 14:40:41;;;;;;;;;;;;;;;;;;5029427;28;19971;-71
2024/02/07 14:43:06;;;;;;;;;;;;;;;;;;5061216;28;19952;-71
2024/02/07 14:45:31;;;;;;;;;;;;;;;;;;5027118;28;20037;-71
2024/02/07 14:48:00;;;;;;;;;;;;;;;;;;5058527;28;20613;-71
2024/02/07 14:50:25;;;;;;;;;;;;;;;;;;5061216;28;20201;-72
2024/02/07 14:52:51;;;;;;;;;;;;;;;;;;5028686;28;19986;-71
2024/02/07 14:55:25;;;;;;;;;;;;;;;;;;5060552;28;19921;-71
2024/02/07 14:57:53;;;;;;;;;;;;;;;;;;5058826;28;20753;-72
2024/02/07 15:00:21;;;;;;;;;;;;;;;;;;5030614;28;19917;-71
2024/02/07 15:06:18;;;;;;;;;;;;;;;;;;5026953;28;19966;-71
2024/02/07 15:08:43;;;;;;;;;;;;;;;;;;5029457;28;19917;-70
2024/02/07 15:11:08;;;;;;;;;;;;;;;;;;5027027;28;20455;-70
2024/02/07 15:13:37;;;;;;;;;;;;;;;;;;5043181;28;19921;-71
2024/02/07 15:16:05;;;;;;;;;;;;;;;;;;5029864;28;19920;-71
2024/02/07 15:18:30;;;;;;;;;;;;;;;;;;5059657;28;20006;-71
2024/02/07 15:20:55;;;;;;;;;;;;;;;;;;5059432;28;19937;-72
2024/02/07 15:23:20;;;;;;;;;;;;;;;;;;5030895;28;19916;-71
2024/02/07 15:25:50;;;;;;;;;;;;;;;;;;5027106;28;20056;-70
2024/02/07 15:28:19;;;;;;;;;;;;;;;;;;5060898;28;19920;-71
2024/02/07 15:30:46;;;;;;;;;;;;;;;;;;5059475;28;19931;-71
2024/02/07 15:33:12;;;;;;;;;;;;;;;;;;5060356;28;19924;-70
2024/02/07 15:35:43;;;;;;;;;;;;;;;;;;5029186;28;19956;-70
2024/02/07 15:38:08;;;;;;;;;;;;;;;;;;5028309;28;19925;-70
2024/02/07 15:40:33;;;;;;;;;;;;;;;;;;5028194;28;19974;-70
2024/02/07 15:42:59;;;;;;;;;;;;;;;;;;5025816;28;19917;-71
2024/02/07 15:45:24;;;;;;;;;;;;;;;;;;5061514;28;19920;-71
2024/02/07 15:47:55;;;;;;;;;;;;;;;;;;5059777;28;19927;-72
2024/02/07 15:50:23;;;;;;;;;;;;;;;;;;5026704;28;19931;-71
2024/02/07 15:52:49;;;;;;;;;;;;;;;;;;5021538;28;19920;-71
2024/02/07 15:55:16;;;;;;;;;;;;;;;;;;5060901;28;19956;-71
2024/02/07 15:57:42;;;;;;;;;;;;;;;;;;5057812;28;20391;-71
2024/02/07 16:00:10;;;;;;;;;;;;;;;;;;5028088;28;20013;-71
2024/02/07 16:05:55;;;;;;;;;;;;;;;;;;5027006;28;20749;-72
2024/02/07 16:08:20;;;;;;;;;;;;;;;;;;5060808;28;19931;-71
2024/02/07 16:10:45;;;;;;;;;;;;;;;;;;5059603;28;20579;-72
2024/02/07 16:13:11;;;;;;;;;;;;;;;;;;5026537;28;19924;-71
2024/02/07 16:15:38;;;;;;;;;;;;;;;;;;5043047;28;19921;-71
2024/02/07 16:18:03;;;;;;;;;;;;;;;;;;5029520;28;19982;-70
2024/02/07 16:20:31;;;;;;;;;;;;;;;;;;5061180;28;20625;-70
2024/02/07 16:26:15;;;;;;;;;;;;;;;;;;5021019;28;19924;-71
2024/02/07 16:28:41;;;;;;;;;;;;;;;;;;5043612;28;19920;-71
2024/02/07 16:31:06;;;;;;;;;;;;;;;;;;5027290;28;19921;-71
2024/02/07 16:33:32;;;;;;;;;;;;;;;;;;5041877;28;19921;-71
2024/02/07 16:35:57;;;;;;;;;;;;;;;;;;5022955;28;20786;-71
2024/02/07 16:38:22;;;;;;;;;;;;;;;;;;5026886;28;20935;-71
2024/02/07 16:40:51;;;;;;;;;;;;;;;;;;5057160;28;19921;-70
2024/02/07 16:43:16;;;;;;;;;;;;;;;;;;5055964;28;20153;-70
2024/02/07 16:45:41;;;;;;;;;;;;;;;;;;5058226;28;19928;-71
2024/02/07 16:48:07;;;;;;;;;;;;;;;;;;5053029;28;19920;-70
2024/02/07 16:50:33;;;;;;;;;;;;;;;;;;5056119;28;19921;-71
2024/02/07 16:52:58;;;;;;;;;;;;;;;;;;5043011;28;19924;-70
2024/02/07 16:55:23;;;;;;;;;;;;;;;;;;5025229;28;19927;-70
2024/02/07 16:57:49;;;;;;;;;;;;;;;;;;5057697;28;19925;-70
2024/02/07 17:00:17;;;;;;;;;;;;;;;;;;5058769;28;20367;-70
2024/02/07 17:02:43;;;;;;;;;;;;;;;;;;5061870;28;19917;-69
2024/02/07 17:05:14;;;;;;;;;;;;;;;;;;5029874;28;20343;-71
2024/02/07 17:10:56;;;;;;;;;;;;;;;;;;5031085;28;20374;-71
2024/02/07 17:13:22;;;;;;;;;;;;;;;;;;5050651;28;19921;-71
2024/02/07 17:15:48;;;;;;;;;;;;;;;;;;5060930;28;20027;-71
2024/02/07 17:18:13;;;;;;;;;;;;;;;;;;5061282;28;20023;-71
2024/02/07 17:20:38;;;;;;;;;;;;;;;;;;5029913;28;19923;-71
2024/02/07 17:23:08;;;;;;;;;;;;;;;;;;5030465;28;20039;-71
2024/02/07 17:25:35;;;;;;;;;;;;;;;;;;5028508;28;20011;-71
2024/02/07 17:28:01;;;;;;;;;;;;;;;;;;5027954;28;20058;-72
2024/02/07 17:30:27;;;;;;;;;;;;;;;;;;5059769;28;20001;-71
2024/02/07 17:32:52;;;;;;;;;;;;;;;;;;5029127;28;19936;-72
2024/02/07 17:35:18;;;;;;;;;;;;;;;;;;5022812;28;19917;-71
2024/02/07 17:37:46;;;;;;;;;;;;;;;;;;5057764;28;20022;-72
2024/02/07 17:40:12;;;;;;;;;;;;;;;;;;5060030;28;19924;-71
2024/02/07 17:42:39;;;;;;;;;;;;;;;;;;5029104;28;20024;-71
2024/02/07 17:45:04;;;;;;;;;;;;;;;;;;5061356;28;19971;-72
2024/02/07 17:47:30;;;;;;;;;;;;;;;;;;5025731;28;20027;-71
2024/02/07 17:49:55;;;;;;;;;;;;;;;;;;5061622;28;20691;-72
2024/02/07 17:52:21;;;;;;;;;;;;;;;;;;5041725;28;19917;-72
2024/02/07 17:54:46;;;;;;;;;;;;;;;;;;5025210;28;20054;-71
2024/02/07 17:57:11;;;;;;;;;;;;;;;;;;5057888;28;19928;-72
2024/02/07 17:59:38;;;;;;;;;;;;;;;;;;5025143;28;19927;-72
2024/02/07 18:02:03;;;;;;;;;;;;;;;;;;5059206;28;19920;-72
2024/02/07 18:04:31;;;;;;;;;;;;;;;;;;5060004;28;19921;-72
2024/02/07 18:06:57;;;;;;;;;;;;;;;;;;5058930;28;20025;-71
2024/02/07 18:09:31;;;;;;;;;;;;;;;;;;5038221;28;19924;-72
2024/02/07 18:11:58;;;;;;;;;;;;;;;;;;5026388;28;20019;-71
2024/02/07 18:14:23;;;;;;;;;;;;;;;;;;5027578;28;20567;-71
2024/02/07 18:16:48;;;;;;;;;;;;;;;;;;5055464;28;19923;-73
2024/02/07 18:19:16;;;;;;;;;;;;;;;;;;5028700;28;19924;-71
2024/02/07 18:21:41;;;;;;;;;;;;;;;;;;5029434;28;20323;-71
2024/02/07 18:24:06;;;;;;;;;;;;;;;;;;5059883;28;20190;-71
2024/02/07 18:26:32;;;;;;;;;;;;;;;;;;5027052;28;19916;-72